Friday, October 19, 2018, 3:05 AM EDT
Back to Local

KOXB, Ocean City Municipal Airport

Location: Berlin, MD, United States Lat: 38.317
Local Time: 3:05 AM EDT ( 7:05 GMT) Lon: -75.117
Time Zone: US/Eastern Elev: 13 ft

Show me the last for .
Show Decoded

2018-10-19 02:53 METAR KOXB 190653Z AUTO 00000KT 6SM BR CLR 03/02 A3038 RMK AO2 SLP288 T00280022
                 =
2018-10-19 01:53 METAR KOXB 190553Z AUTO 00000KT 10SM CLR 03/02 A3039 RMK AO2 SLP290 T00330022
                 10067 20033 56006 =
2018-10-19 00:53 METAR KOXB 190453Z AUTO 00000KT 10SM CLR 03/03 A3040 RMK AO2 SLP293 T00330028
                 401440033 =
2018-10-18 23:53 METAR KOXB 190353Z AUTO 00000KT 10SM CLR 04/03 A3040 RMK AO2 SLP294 T00390028 =
2018-10-18 22:53 METAR KOXB 190253Z AUTO 00000KT 10SM CLR 05/03 A3041 RMK AO2 SLP297 T00500033
                 53004 =
2018-10-18 21:53 METAR KOXB 190153Z AUTO 00000KT 10SM CLR 04/03 A3041 RMK AO2 SLP296 T00440028 =
2018-10-18 20:53 METAR KOXB 190053Z AUTO 26004KT 10SM CLR 06/04 A3040 RMK AO2 SLP292 T00560039 =
2018-10-18 19:53 METAR KOXB 182353Z AUTO 22005KT 10SM CLR 06/04 A3040 RMK AO2 SLP293 T00610039
                 10144 20056 51011 =
2018-10-18 18:53 METAR KOXB 182253Z AUTO 32003KT 10SM CLR 08/04 A3039 RMK AO2 SLP291 T00780039 =
2018-10-18 17:53 METAR KOXB 182153Z AUTO 34005KT 10SM CLR 11/02 A3037 RMK AO2 SLP285 T01110017 =
2018-10-18 16:53 METAR KOXB 182053Z AUTO 33009KT 10SM CLR 13/01 A3036 RMK AO2 SLP282 T01330006
                 56007 =
2018-10-18 15:53 METAR KOXB 181953Z AUTO 31009KT 10SM CLR 14/01 A3037 RMK AO2 SLP283 T01390006 =
2018-10-18 14:53 METAR KOXB 181853Z AUTO 33007KT 10SM CLR 14/M01 A3038 RMK AO2 SLP286 T01391006 =
2018-10-18 13:53 METAR KOXB 181753Z AUTO 30012G19KT 10SM CLR 14/00 A3038 RMK AO2 SLP288 T01390000
                 10144 20072 58013 =
2018-10-18 12:53 METAR KOXB 181653Z AUTO 32007KT 290V010 10SM SCT055 13/00 A3041 RMK AO2 SLP296
                 T01330000 =
2018-10-18 11:53 METAR KOXB 181553Z AUTO 33004G18KT 10SM FEW055 12/00 A3042 RMK AO2 SLP301
                 T01220000 =
2018-10-18 10:53 METAR KOXB 181453Z AUTO 34011G17KT 10SM CLR 12/00 A3042 RMK AO2 SLP301 T01220000
                 51012 =
2018-10-18 09:53 METAR KOXB 181353Z AUTO 34013G20KT 10SM CLR 11/M01 A3041 RMK AO2 SLP298
                 T01111006 =
2018-10-18 08:53 METAR KOXB 181253Z AUTO 34008KT 10SM CLR 09/01 A3041 RMK AO2 SLP297 T00940006 =
2018-10-18 07:53 METAR KOXB 181153Z AUTO 33004KT 10SM CLR 07/02 A3039 RMK AO2 SLP289 T00720017
                 10106 20061 53025 =
2018-10-18 06:53 METAR KOXB 181053Z AUTO 35006KT 10SM CLR 07/00 A3036 RMK AO2 SLP279 T00720000 =
2018-10-18 05:53 METAR KOXB 180953Z AUTO 36009KT 10SM CLR 08/01 A3034 RMK AO2 SLP272 T00780011 =
2018-10-18 04:53 METAR KOXB 180853Z AUTO 35006KT 10SM CLR 08/02 A3031 RMK AO2 SLP263 T00780022
                 53028 =
2018-10-18 03:53 METAR KOXB 180753Z AUTO 34006KT 10SM CLR 08/03 A3028 RMK AO2 SLP254 T00830033 =

Support USWX by starting your Amazon purchase here.